Virgil East

*Note: All times are displayed in the local standard time of the station location.
**Rain - Equipment is designed to accurately record liquid precipitation; under conditions when precipitation is not in liquid form, the data displayed may not properly reflect rainfall values.

Date Max Temp
(°C)
Min Temp
(°C)
Avg Temp
(°C)
Rain (mm) Avg RH (%)
Mon, Apr 23, 2018 19.2 -0.3 9.5 0.0 71.6
Sun, Apr 22, 2018 16.5 -3.2 7.6 0.0 67.6
Sat, Apr 21, 2018 14.1 -3.9 5.6 0.0 70.1
Fri, Apr 20, 2018 8.1 -1.8 3.0 0.0 79.1
Thu, Apr 19, 2018 3.7 0.9 2.2 0.0 88.4
Wed, Apr 18, 2018 4.3 0.9 2.4 0.0 96.1
Tue, Apr 17, 2018 1.6 -0.4 0.8 0.4 93.9
DateTime Avg Temp (°C) Rain (mm) RH (%)
Tue, Apr 24, 2018 18:00 13.1 0.6 98.8
Tue, Apr 24, 2018 17:00 14.3 0.0 86.5
Tue, Apr 24, 2018 16:00 12.9 0.0 78.3
Tue, Apr 24, 2018 15:00 13.3 0.0 79.3
Tue, Apr 24, 2018 14:00 18.0 0.0 62.5
Tue, Apr 24, 2018 13:00 18.8 0.0 55.5
Tue, Apr 24, 2018 12:00 16.6 0.0 58.0
Tue, Apr 24, 2018 11:00 15.6 0.0 69.3
Tue, Apr 24, 2018 10:00 14.8 0.0 76.0
Tue, Apr 24, 2018 09:00 14.5 0.0 74.8
Tue, Apr 24, 2018 08:00 12.8 0.0 79.8
Tue, Apr 24, 2018 07:00 11.0 0.0 86.0
Tue, Apr 24, 2018 06:00 9.0 0.0 91.3
Tue, Apr 24, 2018 05:00 4.9 0.0 100.0
Tue, Apr 24, 2018 04:00 4.5 0.0 100.0
Tue, Apr 24, 2018 03:00 5.0 0.0 99.3
Tue, Apr 24, 2018 02:00 5.2 0.0 95.8
Tue, Apr 24, 2018 01:00 5.0 0.0 97.5
Tue, Apr 24, 2018 00:00 5.3 0.0 97.5
Mon, Apr 23, 2018 23:00 5.6 0.0 97.0
Mon, Apr 23, 2018 22:00 6.7 0.0 92.5
Mon, Apr 23, 2018 21:00 7.9 0.0 83.5
Mon, Apr 23, 2018 20:00 11.5 0.0 69.3
Mon, Apr 23, 2018 19:00 15.1 0.0 57.3
Mon, Apr 23, 2018 18:00 17.3 0.0 51.3
Mon, Apr 23, 2018 17:00 19.0 0.0 43.3
Mon, Apr 23, 2018 16:00 18.5 0.0 39.8
Mon, Apr 23, 2018 15:00 17.8 0.0 43.0
Mon, Apr 23, 2018 14:00 16.6 0.0 46.8
Mon, Apr 23, 2018 13:00 17.0 0.0 51.8
Mon, Apr 23, 2018 12:00 17.9 0.0 36.5
Mon, Apr 23, 2018 11:00 15.9 0.0 40.3
Mon, Apr 23, 2018 10:00 13.7 0.0 42.5
Mon, Apr 23, 2018 09:00 10.1 0.0 63.0
Mon, Apr 23, 2018 08:00 4.4 0.0 87.3
Mon, Apr 23, 2018 07:00 0.3 0.0 99.8
Mon, Apr 23, 2018 06:00 0.9 0.0 94.5
Mon, Apr 23, 2018 05:00 2.0 0.0 86.8
Mon, Apr 23, 2018 04:00 0.6 0.0 100.0
Mon, Apr 23, 2018 03:00 0.6 0.0 100.0
Mon, Apr 23, 2018 02:00 0.9 0.0 100.0
Mon, Apr 23, 2018 01:00 2.6 0.0 94.8
Mon, Apr 23, 2018 00:00 4.9 0.0 82.0
Sun, Apr 22, 2018 23:00 5.0 0.0 89.0
Sun, Apr 22, 2018 22:00 7.2 0.0 71.0
Sun, Apr 22, 2018 21:00 10.2 0.0 59.3
Sun, Apr 22, 2018 20:00 14.7 0.0 41.5
Sun, Apr 22, 2018 19:00 16.1 0.0 33.0


asterix Register now to access more data! asterix